Time;durP1;ratioP1;P1;durP2;ratioP2;P2;SDS_P1;SDS_P2;PMS_P1;PMS_P2;Temp;Humidity;BMP_temperature;BMP_pressure;BME280_temperature;BME280_humidity;BME280_pressure;Samples;Min_cycle;Max_cycle;Signal;HPM_P1;HPM_P2
2022/12/26 00:01:07;;;;;;;;;9.00;9.00;;;;;13.04;78.79;100533.25;5035576;28;45972;-69
2022/12/26 00:03:33;;;;;;;;;8.00;8.00;;;;;13.05;78.72;100545.53;5035926;28;45891;-67
2022/12/26 00:05:58;;;;;;;;;6.00;6.00;;;;;13.05;78.84;100547.31;5035946;28;45304;-64
2022/12/26 00:08:23;;;;;;;;;8.50;8.50;;;;;13.06;78.79;100549.03;5035749;28;45614;-65
2022/12/26 00:10:49;;;;;;;;;6.00;6.00;;;;;13.07;79.02;100540.19;5034934;28;46125;-70
2022/12/26 00:13:14;;;;;;;;;9.25;9.25;;;;;13.09;79.08;100541.78;5033719;28;45416;-65
2022/12/26 00:15:40;;;;;;;;;8.00;8.00;;;;;13.10;78.29;100542.66;5016545;28;45355;-68
2022/12/26 00:18:06;;;;;;;;;9.50;9.50;;;;;13.08;79.45;100542.72;5034923;28;45409;-69
2022/12/26 00:20:31;;;;;;;;;11.50;11.50;;;;;13.07;79.46;100541.03;5016482;28;51557;-64
2022/12/26 00:22:56;;;;;;;;;8.00;8.00;;;;;13.08;78.99;100537.44;5034650;28;45300;-69
2022/12/26 00:25:22;;;;;;;;;7.75;7.75;;;;;13.07;79.04;100548.09;5037347;28;49993;-67
2022/12/26 00:27:47;;;;;;;;;8.00;8.00;;;;;13.04;79.15;100551.75;5037625;28;49239;-64
2022/12/26 00:30:12;;;;;;;;;9.00;9.00;;;;;12.63;79.40;100489.53;5034384;28;50791;-64
2022/12/26 00:32:38;;;;;;;;;8.75;8.75;;;;;13.03;79.31;100555.31;5016660;28;46010;-65
2022/12/26 00:35:03;;;;;;;;;9.00;9.00;;;;;13.02;79.45;100548.31;5034410;28;45156;-68
2022/12/26 00:37:29;;;;;;;;;8.00;8.00;;;;;13.03;79.54;100546.56;5034888;28;45480;-68
2022/12/26 00:39:55;;;;;;;;;9.25;9.25;;;;;13.05;79.36;100552.59;5034658;28;46132;-66
2022/12/26 00:42:20;;;;;;;;;8.00;8.00;;;;;13.04;79.44;100548.25;5034875;28;45344;-67
2022/12/26 00:44:46;;;;;;;;;9.50;9.50;;;;;13.02;79.37;100526.38;5034678;28;45500;-69
2022/12/26 00:47:11;;;;;;;;;7.00;7.00;;;;;12.99;79.29;100540.56;5034948;28;45380;-71
2022/12/26 00:49:36;;;;;;;;;8.00;8.00;;;;;12.99;79.26;100548.47;5016560;28;48061;-70
2022/12/26 00:52:01;;;;;;;;;5.00;5.00;;;;;12.95;79.16;100544.28;5034744;28;51650;-67
2022/12/26 00:54:27;;;;;;;;;7.75;7.75;;;;;12.96;79.42;100557.44;5036229;28;45615;-67
2022/12/26 00:56:52;;;;;;;;;7.00;7.00;;;;;12.99;79.55;100566.97;5033998;28;57090;-65
2022/12/26 00:59:17;;;;;;;;;9.50;9.50;;;;;13.00;79.51;100551.06;5033912;28;46020;-65
2022/12/26 01:01:43;;;;;;;;;8.25;8.25;;;;;13.00;79.67;100542.25;5033898;28;45351;-67
2022/12/26 01:04:08;;;;;;;;;5.50;5.50;;;;;12.93;79.30;100519.75;5034111;28;45385;-67
2022/12/26 01:06:33;;;;;;;;;6.50;6.50;;;;;12.99;79.44;100546.72;5034419;28;45452;-68
2022/12/26 01:08:59;;;;;;;;;7.00;7.00;;;;;12.98;79.44;100547.66;5033884;28;46175;-67
2022/12/26 01:11:39;;;;;;;;;6.00;6.00;;;;;12.98;79.39;100557.34;5034079;28;45233;-64
2022/12/26 01:14:08;;;;;;;;;4.00;4.00;;;;;12.95;79.84;100557.50;5033960;28;45278;-65
2022/12/26 01:16:33;;;;;;;;;5.50;5.50;;;;;12.93;79.53;100556.72;5015940;28;45328;-67
2022/12/26 01:18:58;;;;;;;;;8.00;7.00;;;;;12.91;79.42;100574.41;5033879;28;45392;-69
2022/12/26 01:21:24;;;;;;;;;5.75;5.75;;;;;12.91;79.54;100580.56;5033709;28;60513;-68
2022/12/26 01:23:49;;;;;;;;;6.00;6.00;;;;;12.90;79.39;100584.13;5033529;28;45312;-66
2022/12/26 01:26:14;;;;;;;;;6.00;6.00;;;;;12.89;79.39;100578.91;5035510;28;50901;-68
2022/12/26 01:28:40;;;;;;;;;5.25;5.25;;;;;12.89;79.37;100581.56;5037015;28;45427;-69
2022/12/26 01:31:05;;;;;;;;;6.00;6.00;;;;;12.85;79.46;100565.03;5037354;28;45234;-68
2022/12/26 01:33:31;;;;;;;;;5.25;5.25;;;;;12.87;78.93;100573.72;5037377;28;45240;-68
2022/12/26 01:35:57;;;;;;;;;5.00;5.00;;;;;12.87;79.10;100568.44;5037728;28;45233;-68
2022/12/26 01:38:22;;;;;;;;;4.00;4.00;;;;;12.83;79.31;100567.75;5037191;28;45237;-69
2022/12/26 01:41:15;;;;;;;;;7.50;7.50;;;;;12.82;79.36;100573.94;5037520;28;45256;-68
2022/12/26 01:44:05;;;;;;;;;5.75;5.75;;;;;12.80;79.54;100582.88;5037100;28;45458;-69
2022/12/26 01:46:36;;;;;;;;;4.25;4.25;;;;;12.77;79.36;100591.78;5020442;28;45297;-65
2022/12/26 01:49:12;;;;;;;;;6.00;6.00;;;;;12.75;79.41;100595.47;5036840;28;46135;-70
2022/12/26 01:51:40;;;;;;;;;4.50;4.50;;;;;12.70;79.51;100609.72;5036765;28;45265;-64
2022/12/26 01:54:08;;;;;;;;;4.00;4.00;;;;;12.72;79.51;100622.84;5037312;28;45524;-66
2022/12/26 01:56:39;;;;;;;;;5.00;5.00;;;;;12.70;79.48;100633.47;5037599;28;45312;-64
2022/12/26 01:59:10;;;;;;;;;8.00;8.00;;;;;12.69;79.49;100636.19;5036885;28;46365;-66
2022/12/26 02:01:40;;;;;;;;;4.00;4.00;;;;;12.67;79.54;100633.59;5036858;28;45335;-63
2022/12/26 02:06:53;;;;;;;;;4.00;4.00;;;;;12.64;79.66;100638.19;5036968;28;45361;-68
2022/12/26 02:09:19;;;;;;;;;4.50;4.50;;;;;12.64;79.73;100635.56;5036642;28;46016;-69
2022/12/26 02:11:57;;;;;;;;;3.00;3.00;;;;;12.62;79.71;100621.56;5036611;28;45463;-68
2022/12/26 02:14:22;;;;;;;;;4.00;4.00;;;;;12.61;79.50;100625.97;5036522;28;45474;-67
2022/12/26 02:16:47;;;;;;;;;2.25;2.25;;;;;12.39;79.75;100598.00;5018392;28;45240;-66
2022/12/26 02:19:38;;;;;;;;;2.50;2.50;;;;;12.59;79.77;100627.84;5036876;28;45294;-70
2022/12/26 02:22:22;;;;;;;;;2.00;2.00;;;;;12.57;79.88;100608.59;5036533;28;45376;-63
2022/12/26 02:25:10;;;;;;;;;3.00;3.00;;;;;12.57;79.97;100604.19;5037378;28;45356;-63
2022/12/26 02:28:23;;;;;;;;;3.00;3.00;;;;;12.56;79.82;100602.47;5018420;28;45431;-69
2022/12/26 02:31:09;;;;;;;;;3.00;3.00;;;;;12.56;80.18;100602.47;5036069;28;46302;-65
2022/12/26 02:34:01;;;;;;;;;3.00;3.00;;;;;12.50;80.08;100602.78;5036906;28;45316;-68
2022/12/26 02:36:41;;;;;;;;;1.00;1.00;;;;;12.56;80.21;100630.63;5036052;28;45425;-66
2022/12/26 02:39:28;;;;;;;;;3.75;3.75;;;;;12.57;80.14;100634.97;5036270;28;45541;-65
2022/12/26 02:42:05;;;;;;;;;1.50;1.50;;;;;12.57;79.82;100629.69;5035827;28;45479;-67
2022/12/26 02:47:49;;;;;;;;;2.00;2.00;;;;;12.53;80.02;100597.34;5036126;28;45400;-68
2022/12/26 03:13:30;;;;;;;;;2.25;2.25;;;;;12.50;80.19;100605.41;5036108;28;45321;-70
2022/12/26 03:19:02;;;;;;;;;2.00;2.00;;;;;12.46;80.48;100605.63;5035880;28;45376;-64
2022/12/26 03:21:35;;;;;;;;;2.25;2.25;;;;;12.41;80.23;100597.94;5036218;28;45316;-62
2022/12/26 03:24:00;;;;;;;;;1.75;1.75;;;;;12.39;80.49;100592.72;5018062;28;45559;-64
2022/12/26 03:26:38;;;;;;;;;2.25;2.25;;;;;12.37;80.57;100591.94;5035630;28;46246;-63
2022/12/26 03:31:47;;;;;;;;;1.00;1.00;;;;;12.31;81.04;100601.94;5035446;28;45452;-62
2022/12/26 03:34:16;;;;;;;;;1.00;1.00;;;;;12.35;80.35;100600.88;5035999;28;45611;-66
2022/12/26 03:36:50;;;;;;;;;1.75;0.00;;;;;12.33;80.62;100606.19;5035416;28;46354;-65
2022/12/26 04:44:05;;;;;;;;;1.50;1.50;;;;;12.15;80.84;100652.72;5035854;28;45337;-64
2022/12/26 04:46:33;;;;;;;;;2.25;2.25;;;;;12.13;81.18;100658.09;5035543;28;46280;-69
2022/12/26 04:51:46;;;;;;;;;3.00;3.00;;;;;12.17;81.00;100663.22;5034431;28;45421;-66
2022/12/26 04:54:12;;;;;;;;;2.00;2.00;;;;;12.15;80.83;100665.91;5034725;28;45452;-66
2022/12/26 04:56:37;;;;;;;;;2.00;2.00;;;;;12.15;80.52;100686.16;5034094;28;55207;-67
2022/12/26 04:59:02;;;;;;;;;0.50;0.50;;;;;11.92;80.89;100661.66;5034392;28;45273;-64
2022/12/26 05:09:44;;;;;;;;;1.50;1.50;;;;;12.12;80.66;100687.16;5037948;28;45384;-62
2022/12/26 05:12:09;;;;;;;;;1.00;1.00;;;;;12.13;81.29;100700.28;5038329;28;45453;-66
2022/12/26 05:14:35;;;;;;;;;1.00;1.00;;;;;12.14;81.27;100703.75;5038043;28;45399;-63
2022/12/26 05:31:03;;;;;;;;;1.00;1.00;;;;;12.06;80.83;100692.69;5038048;28;45446;-68
2022/12/26 05:36:13;;;;;;;;;2.00;2.00;;;;;12.03;81.41;100706.91;5037562;28;45348;-67
2022/12/26 05:38:38;;;;;;;;;3.00;3.00;;;;;12.03;81.07;100703.38;5037259;28;45490;-67
2022/12/26 05:41:04;;;;;;;;;2.00;2.00;;;;;11.98;80.82;100701.78;5037321;28;45385;-68
2022/12/26 05:43:30;;;;;;;;;3.00;3.00;;;;;11.95;81.07;100706.34;5037240;28;45327;-64
2022/12/26 05:45:55;;;;;;;;;1.75;1.75;;;;;11.96;81.13;100722.06;5037932;28;45535;-66
2022/12/26 05:48:20;;;;;;;;;1.00;1.00;;;;;11.86;80.58;100714.66;5036800;28;67704;-67
2022/12/26 05:50:46;;;;;;;;;2.00;2.00;;;;;11.90;81.04;100724.16;5037333;28;45353;-64
2022/12/26 05:53:11;;;;;;;;;1.25;1.25;;;;;11.89;80.57;100735.59;5018983;28;57178;-63
2022/12/26 05:55:36;;;;;;;;;1.25;1.25;;;;;11.88;80.71;100747.06;5037565;28;45445;-67
2022/12/26 05:58:02;;;;;;;;;1.25;1.25;;;;;11.86;81.11;100757.66;5036731;28;52399;-69
2022/12/26 06:00:29;;;;;;;;;1.00;1.00;;;;;11.83;80.74;100755.16;5037123;28;45215;-69
2022/12/26 06:02:54;;;;;;;;;1.25;1.25;;;;;11.82;80.40;100754.31;5036853;28;45292;-66
2022/12/26 06:05:20;;;;;;;;;1.00;1.00;;;;;11.81;80.38;100747.34;5037281;28;45367;-64
2022/12/26 06:07:45;;;;;;;;;2.00;2.00;;;;;11.83;80.39;100740.22;5036840;28;45411;-64
2022/12/26 06:10:11;;;;;;;;;1.50;1.50;;;;;11.82;80.42;100743.78;5037117;28;45348;-65
2022/12/26 06:12:37;;;;;;;;;2.00;2.00;;;;;11.83;80.17;100744.63;5036007;28;45287;-70
2022/12/26 06:15:03;;;;;;;;;3.50;3.50;;;;;11.75;79.97;100731.78;5018726;28;45640;-63
2022/12/26 06:17:28;;;;;;;;;1.75;1.75;;;;;11.84;79.87;100746.34;5037536;28;46907;-66
2022/12/26 06:19:54;;;;;;;;;1.50;1.50;;;;;11.81;79.44;100742.06;5036252;28;57289;-67
2022/12/26 06:22:19;;;;;;;;;2.25;2.25;;;;;11.79;79.30;100738.63;5018464;28;45419;-64
2022/12/26 06:24:44;;;;;;;;;1.00;1.00;;;;;11.81;79.52;100735.94;5036383;28;45402;-62
2022/12/26 06:27:09;;;;;;;;;2.75;2.75;;;;;11.79;79.40;100733.38;5036008;28;58694;-64
2022/12/26 06:29:35;;;;;;;;;2.00;2.00;;;;;11.77;79.63;100727.31;5036026;28;55860;-65
2022/12/26 06:32:01;;;;;;;;;2.00;2.00;;;;;11.77;79.39;100716.78;5036658;28;45404;-67
2022/12/26 06:34:26;;;;;;;;;3.00;3.00;;;;;11.68;79.00;100709.25;5036619;28;45373;-68
2022/12/26 06:36:52;;;;;;;;;1.00;1.00;;;;;11.76;79.09;100730.88;5036255;28;53746;-67
2022/12/26 06:39:18;;;;;;;;;1.00;1.00;;;;;11.70;79.12;100728.50;5036474;28;45343;-67
2022/12/26 06:41:43;;;;;;;;;0.00;0.00;;;;;11.72;78.83;100744.22;5036553;28;45341;-65
2022/12/26 06:44:09;;;;;;;;;1.25;1.25;;;;;11.67;78.47;100750.53;5036381;28;46082;-65
2022/12/26 06:46:35;;;;;;;;;1.75;1.75;;;;;11.65;78.76;100752.38;5018240;28;45412;-65
2022/12/26 06:49:00;;;;;;;;;2.25;2.25;;;;;11.68;78.95;100764.59;5035849;28;45348;-65
2022/12/26 06:51:27;;;;;;;;;4.00;4.00;;;;;11.64;79.02;100770.88;5035838;28;45376;-68
2022/12/26 06:53:54;;;;;;;;;1.50;1.50;;;;;11.55;79.14;100757.19;5036205;28;45513;-67
2022/12/26 06:56:22;;;;;;;;;1.25;1.25;;;;;11.61;79.32;100774.53;5035743;28;46501;-66
2022/12/26 06:58:53;;;;;;;;;2.25;2.00;;;;;11.61;78.88;100776.28;5035896;28;45340;-65
2022/12/26 07:01:20;;;;;;;;;2.75;2.75;;;;;11.57;79.26;100777.31;5035832;28;45305;-64
2022/12/26 07:03:46;;;;;;;;;4.00;4.00;;;;;11.56;79.00;100781.75;5036553;28;45564;-65
2022/12/26 07:06:36;;;;;;;;;2.75;2.75;;;;;11.46;79.48;100765.47;5036093;28;45403;-64
2022/12/26 07:09:08;;;;;;;;;2.25;2.25;;;;;11.50;79.12;100780.22;5035040;28;45404;-64
2022/12/26 07:11:36;;;;;;;;;3.00;3.00;;;;;11.49;79.15;100794.31;5035528;28;45242;-65
2022/12/26 07:14:02;;;;;;;;;1.00;1.00;;;;;11.51;79.70;100791.63;5035760;28;45620;-65
2022/12/26 07:16:28;;;;;;;;;2.75;2.75;;;;;11.52;79.74;100788.91;5035400;28;46455;-63
2022/12/26 07:18:55;;;;;;;;;2.00;2.00;;;;;11.54;79.77;100792.34;5017892;28;45803;-65
2022/12/26 07:21:22;;;;;;;;;3.75;3.75;;;;;11.57;79.59;100806.31;5036594;28;45412;-65
2022/12/26 07:23:48;;;;;;;;;4.50;4.50;;;;;11.58;79.20;100805.38;5036180;28;45471;-65
2022/12/26 07:26:14;;;;;;;;;2.00;2.00;;;;;11.60;79.29;100814.97;5035933;28;45314;-69
2022/12/26 07:28:39;;;;;;;;;3.75;3.75;;;;;11.57;79.31;100816.84;5035327;28;54506;-68
2022/12/26 07:31:04;;;;;;;;;3.00;3.00;;;;;11.60;79.18;100829.91;5035345;28;45257;-64
2022/12/26 07:33:30;;;;;;;;;3.00;3.00;;;;;11.62;79.08;100825.41;5035733;28;45250;-65
2022/12/26 07:36:03;;;;;;;;;2.50;2.50;;;;;11.62;79.38;100818.38;5034883;28;52356;-63
2022/12/26 07:38:28;;;;;;;;;3.00;3.00;;;;;11.54;79.44;100805.50;5035427;28;45237;-63
2022/12/26 07:40:55;;;;;;;;;2.00;2.00;;;;;11.50;79.35;100824.16;5035428;28;45245;-63
2022/12/26 07:43:20;;;;;;;;;3.00;3.00;;;;;11.50;79.38;100822.38;5017582;28;45443;-64
2022/12/26 07:45:46;;;;;;;;;3.00;3.00;;;;;11.49;79.21;100822.44;5035248;28;46428;-67
2022/12/26 07:48:11;;;;;;;;;2.75;2.75;;;;;11.48;79.15;100824.19;5034597;28;65121;-64
2022/12/26 07:50:36;;;;;;;;;2.25;2.25;;;;;11.44;79.22;100827.88;5035324;28;45316;-63
2022/12/26 07:53:01;;;;;;;;;4.50;4.50;;;;;11.37;79.80;100821.16;5017348;28;45424;-65
2022/12/26 07:55:27;;;;;;;;;4.00;4.00;;;;;11.42;79.77;100839.41;5034597;28;55591;-65
2022/12/26 07:57:52;;;;;;;;;4.50;4.50;;;;;11.39;79.82;100833.34;5034898;28;45421;-64
2022/12/26 08:00:19;;;;;;;;;2.00;2.00;;;;;11.43;79.81;100836.69;5017335;28;45341;-64
2022/12/26 08:02:48;;;;;;;;;3.00;3.00;;;;;11.36;79.51;100835.22;5035753;28;45340;-65
2022/12/26 08:05:13;;;;;;;;;4.00;4.00;;;;;11.43;79.75;100844.59;5034463;28;46506;-67
2022/12/26 08:07:38;;;;;;;;;3.50;3.50;;;;;11.38;79.77;100849.19;5034872;28;45374;-66
2022/12/26 08:10:04;;;;;;;;;5.00;5.00;;;;;11.40;80.02;100842.97;5035217;28;45934;-66
2022/12/26 08:12:32;;;;;;;;;4.00;4.00;;;;;11.48;79.77;100866.34;5035087;28;45245;-63
2022/12/26 08:14:57;;;;;;;;;2.25;2.25;;;;;11.52;79.53;100846.88;5034668;28;45428;-68
2022/12/26 08:17:23;;;;;;;;;3.00;3.00;;;;;11.54;79.89;100858.22;5034712;28;45301;-63
2022/12/26 08:19:48;;;;;;;;;4.25;4.25;;;;;11.55;79.71;100865.19;5035043;28;45519;-63
2022/12/26 08:22:13;;;;;;;;;11.50;11.50;;;;;11.58;79.71;100868.63;5034437;28;45317;-63
2022/12/26 08:24:38;;;;;;;;;4.00;4.00;;;;;11.60;79.42;100867.66;5034105;28;57813;-68
2022/12/26 08:27:04;;;;;;;;;2.50;2.50;;;;;11.61;79.46;100866.72;5034452;28;45501;-64
2022/12/26 08:29:29;;;;;;;;;3.75;3.75;;;;;11.64;79.64;100866.63;5034436;28;45396;-65
2022/12/26 08:31:54;;;;;;;;;4.50;4.00;;;;;11.66;79.31;100870.03;5016671;28;45395;-66
2022/12/26 08:34:20;;;;;;;;;2.75;2.75;;;;;11.67;79.07;100870.91;5034099;28;52964;-69
2022/12/26 08:36:50;;;;;;;;;3.00;3.00;;;;;11.65;78.96;100884.13;5035340;28;45344;-67
2022/12/26 08:39:15;;;;;;;;;4.00;4.00;;;;;11.67;79.06;100877.03;5034856;28;45276;-65
2022/12/26 08:41:40;;;;;;;;;2.00;2.00;;;;;11.68;79.33;100893.72;5000125;28;45490;-68
2022/12/26 08:44:08;;;;;;;;;6.00;6.00;;;;;11.69;79.28;100888.38;5034201;28;46487;-69
2022/12/26 08:46:33;;;;;;;;;4.00;4.00;;;;;11.69;78.83;100900.69;5034333;28;45457;-68
2022/12/26 08:48:58;;;;;;;;;3.00;3.00;;;;;11.71;78.20;100893.59;5016100;28;45540;-66
2022/12/26 08:51:24;;;;;;;;;3.25;3.25;;;;;11.63;78.42;100885.97;5034400;28;45466;-64
2022/12/26 08:53:50;;;;;;;;;4.50;4.50;;;;;11.72;78.46;100899.69;5034279;28;46275;-63
2022/12/26 08:56:22;;;;;;;;;3.00;3.00;;;;;11.74;78.01;100911.91;5033890;28;45411;-68
2022/12/26 08:58:47;;;;;;;;;4.75;4.00;;;;;11.74;78.11;100911.91;5034635;28;45495;-68
2022/12/26 09:01:20;;;;;;;;;2.00;2.00;;;;;11.73;77.81;100912.84;5035329;28;45643;-66
2022/12/26 09:03:46;;;;;;;;;1.75;1.75;;;;;11.75;77.86;100913.63;5016002;28;47899;-68
2022/12/26 09:06:13;;;;;;;;;2.00;2.00;;;;;11.76;77.68;100925.88;5034067;28;45308;-68
2022/12/26 09:08:40;;;;;;;;;4.50;4.50;;;;;11.77;77.41;100924.97;5015927;28;45371;-62
2022/12/26 09:11:20;;;;;;;;;3.00;3.00;;;;;11.80;77.92;100930.13;5033873;28;45415;-64
2022/12/26 09:13:46;;;;;;;;;2.00;2.00;;;;;11.82;78.06;100938.81;5033535;28;46586;-63
2022/12/26 09:16:21;;;;;;;;;5.00;5.00;;;;;11.82;77.53;100943.22;5033402;28;45384;-66
2022/12/26 09:18:47;;;;;;;;;2.75;2.75;;;;;11.76;77.36;100922.38;5033567;28;45416;-64
2022/12/26 09:21:14;;;;;;;;;3.75;3.75;;;;;11.85;77.33;100937.81;5034076;28;45649;-64
2022/12/26 09:23:41;;;;;;;;;3.25;3.25;;;;;11.91;77.30;100944.66;5034470;28;46250;-64
2022/12/26 09:26:12;;;;;;;;;3.25;3.25;;;;;11.93;77.39;100956.81;5034295;28;45400;-63
2022/12/26 09:28:37;;;;;;;;;4.75;3.00;;;;;11.94;77.23;100953.28;5033626;28;45314;-67
2022/12/26 09:31:06;;;;;;;;;4.00;4.00;;;;;11.98;77.25;100967.22;5033908;28;45454;-69
2022/12/26 09:33:32;;;;;;;;;2.00;2.00;;;;;12.00;77.07;100962.75;5033741;28;45434;-69
2022/12/26 09:35:58;;;;;;;;;0.00;0.00;;;;;11.96;77.13;100945.31;5033492;28;45446;-67
2022/12/26 09:38:24;;;;;;;;;4.00;4.00;;;;;12.05;76.98;100944.97;5034156;28;45502;-67
2022/12/26 09:41:12;;;;;;;;;3.25;3.25;;;;;12.09;76.81;100959.75;5035905;28;45162;-69
2022/12/26 09:44:17;;;;;;;;;5.00;5.00;;;;;12.13;76.89;100963.09;5034121;28;45336;-65
2022/12/26 09:46:48;;;;;;;;;2.50;2.50;;;;;12.17;76.08;100963.84;5034603;28;45470;-70
2022/12/26 09:49:32;;;;;;;;;7.50;7.50;;;;;12.20;76.73;100969.00;5037046;28;45325;-69
2022/12/26 09:52:09;;;;;;;;;4.00;4.00;;;;;12.21;76.43;100963.69;5037649;28;45376;-68
2022/12/26 09:54:48;;;;;;;;;2.00;2.00;;;;;12.21;76.17;100973.34;5018668;28;46631;-68
2022/12/26 09:57:24;;;;;;;;;2.25;2.25;;;;;12.24;76.18;100982.00;5036769;28;45341;-70
2022/12/26 10:00:03;;;;;;;;;1.00;1.00;;;;;12.27;76.28;100979.25;5018909;28;45379;-69
2022/12/26 10:02:28;;;;;;;;;3.00;3.00;;;;;12.29;76.21;100973.06;5036867;28;45315;-69
2022/12/26 10:04:54;;;;;;;;;2.25;2.25;;;;;12.31;76.13;100973.84;5037013;28;45273;-70
2022/12/26 10:07:45;;;;;;;;;5.25;5.25;;;;;12.33;76.10;100979.91;5018423;28;45421;-68
2022/12/26 10:10:17;;;;;;;;;3.50;3.50;;;;;12.34;75.75;100979.00;5037617;28;45327;-70
2022/12/26 10:12:51;;;;;;;;;4.00;4.00;;;;;12.34;76.11;100985.13;5037252;28;45326;-71
2022/12/26 10:15:22;;;;;;;;;3.00;3.00;;;;;12.36;75.92;100985.91;5036706;28;45414;-68
2022/12/26 10:17:53;;;;;;;;;3.00;3.00;;;;;12.37;75.84;100987.63;5036767;28;45438;-70
2022/12/26 10:20:42;;;;;;;;;3.75;3.75;;;;;12.40;75.83;100984.03;5037076;28;45319;-65
2022/12/26 10:23:23;;;;;;;;;2.50;2.50;;;;;12.44;75.51;100990.00;5037034;28;45328;-71
2022/12/26 10:25:54;;;;;;;;;2.50;2.00;;;;;12.46;75.73;100982.88;5036522;28;46676;-70
2022/12/26 10:28:42;;;;;;;;;3.00;3.00;;;;;12.48;75.56;100983.69;5036531;28;45484;-69
2022/12/26 10:31:24;;;;;;;;;3.25;3.25;;;;;12.43;75.36;100973.34;5025907;28;45523;-69
2022/12/26 10:34:03;;;;;;;;;2.50;2.50;;;;;12.30;74.87;100946.59;5036717;28;45347;-67
2022/12/26 10:36:31;;;;;;;;;4.00;4.00;;;;;12.53;75.10;100972.03;5036528;28;46064;-69
2022/12/26 10:39:00;;;;;;;;;3.00;3.00;;;;;12.56;74.67;100971.03;5018696;28;45382;-66
2022/12/26 10:41:32;;;;;;;;;2.00;2.00;;;;;12.55;74.85;100966.66;5036914;28;45369;-67
2022/12/26 10:43:58;;;;;;;;;4.25;4.00;;;;;12.49;74.58;100961.66;5018275;28;45369;-70
2022/12/26 10:47:01;;;;;;;;;5.00;5.00;;;;;12.59;74.22;100980.59;5035991;28;45317;-69
2022/12/26 10:49:27;;;;;;;;;3.25;3.25;;;;;12.50;74.21;100966.00;5011956;28;45301;-65
2022/12/26 10:51:55;;;;;;;;;6.50;6.50;;;;;12.55;74.35;100985.13;5036176;28;45340;-71
2022/12/26 10:54:21;;;;;;;;;3.00;3.00;;;;;12.54;74.38;100984.31;5036219;28;45583;-67
2022/12/26 10:56:49;;;;;;;;;3.25;3.25;;;;;12.54;74.21;100988.69;5017493;28;46944;-65
2022/12/26 10:59:28;;;;;;;;;4.00;3.75;;;;;12.54;74.22;100981.66;5035907;28;45327;-67
2022/12/26 11:01:53;;;;;;;;;2.25;2.25;;;;;12.51;74.41;100981.78;5036540;28;45249;-69
2022/12/26 11:04:24;;;;;;;;;2.25;2.25;;;;;12.55;74.48;100975.47;5036217;28;45412;-68
2022/12/26 11:06:51;;;;;;;;;2.00;2.00;;;;;12.57;74.50;100994.72;5035657;28;45486;-70
2022/12/26 11:09:44;;;;;;;;;3.00;3.00;;;;;12.56;74.19;100992.13;5035634;28;45332;-69
2022/12/26 11:12:29;;;;;;;;;2.75;2.75;;;;;12.56;74.06;100990.38;5036235;28;45468;-68
2022/12/26 11:15:02;;;;;;;;;3.00;3.00;;;;;12.57;74.16;100991.22;5036600;28;45417;-69
2022/12/26 11:17:32;;;;;;;;;6.00;6.00;;;;;12.62;74.13;100998.94;5035670;28;47101;-69
2022/12/26 11:20:15;;;;;;;;;5.00;5.00;;;;;12.64;74.05;100986.56;5036203;28;45278;-71
2022/12/26 11:22:42;;;;;;;;;8.25;7.50;;;;;12.64;73.75;100986.56;5035756;28;45359;-70
2022/12/26 11:25:08;;;;;;;;;7.25;7.25;;;;;12.66;73.84;100982.06;5036131;28;45263;-69
2022/12/26 11:27:33;;;;;;;;;3.00;3.00;;;;;12.68;73.85;100980.22;5036440;28;46424;-67
2022/12/26 11:30:26;;;;;;;;;3.00;3.00;;;;;12.66;73.29;100979.41;5036274;28;45235;-69
2022/12/26 11:33:17;;;;;;;;;13.25;12.00;;;;;12.65;73.50;100975.91;5026957;28;45231;-70
2022/12/26 11:35:50;;;;;;;;;7.00;7.00;;;;;12.71;73.53;100978.28;5017599;28;45403;-72
2022/12/26 11:38:33;;;;;;;;;5.50;4.50;;;;;12.75;73.50;100976.38;5035458;28;46295;-69
2022/12/26 11:41:30;;;;;;;;;6.25;6.25;;;;;12.79;73.25;100983.25;5035580;28;45303;-69
2022/12/26 11:44:19;;;;;;;;;3.00;3.00;;;;;12.80;72.88;100990.25;5018032;28;45470;-71
2022/12/26 11:46:53;;;;;;;;;3.25;3.25;;;;;12.80;73.20;100995.53;5022817;28;45457;-68
2022/12/26 11:49:38;;;;;;;;;5.75;5.75;;;;;12.81;72.78;101002.53;5035813;28;46675;-70
2022/12/26 11:52:31;;;;;;;;;9.25;9.25;;;;;12.79;72.53;101003.53;5036022;28;45464;-70
2022/12/26 11:54:57;;;;;;;;;3.00;3.00;;;;;12.73;72.33;100999.34;5036706;28;45372;-68
2022/12/26 11:57:28;;;;;;;;;8.25;8.25;;;;;12.67;72.19;100994.34;5036009;28;45755;-69
2022/12/26 12:00:12;;;;;;;;;3.00;3.00;;;;;12.63;71.94;101004.16;5035394;28;45384;-68
2022/12/26 12:02:39;;;;;;;;;2.25;2.25;;;;;12.60;71.99;100991.09;5035464;28;45335;-69
2022/12/26 12:05:31;;;;;;;;;4.50;4.50;;;;;12.37;72.11;100955.97;5035035;28;45242;-68
2022/12/26 12:08:14;;;;;;;;;2.75;2.75;;;;;12.59;72.13;101015.75;5031598;28;45220;-69
2022/12/26 12:11:17;;;;;;;;;1.00;1.00;;;;;12.41;71.08;101035.88;5034555;28;46271;-68
2022/12/26 12:13:52;;;;;;;;;1.00;1.00;;;;;12.18;71.73;101037.63;5018068;28;45313;-71
2022/12/26 12:16:35;;;;;;;;;2.00;2.00;;;;;11.85;75.63;101030.09;5035614;28;45373;-70
2022/12/26 12:19:22;;;;;;;;;1.00;1.00;;;;;11.33;77.95;101038.16;5036112;28;45490;-69
2022/12/26 12:22:39;;;;;;;;;2.50;2.50;;;;;10.96;79.57;101033.28;5035287;28;45393;-71
2022/12/26 12:25:18;;;;;;;;;2.75;2.75;;;;;10.78;81.67;101041.81;4931237;28;45501;-65
2022/12/26 12:28:01;;;;;;;;;3.00;3.00;;;;;10.60;82.00;101038.00;5035700;28;45229;-66
2022/12/26 12:31:08;;;;;;;;;1.00;1.00;;;;;10.45;83.30;101036.72;5037985;28;45397;-69
2022/12/26 12:34:01;;;;;;;;;1.00;1.00;;;;;10.27;83.91;101051.31;5034947;28;45465;-67
2022/12/26 12:36:49;;;;;;;;;2.50;2.50;;;;;10.11;85.72;101059.66;5017098;28;45356;-71
2022/12/26 12:39:25;;;;;;;;;2.00;2.00;;;;;9.94;86.46;101062.78;5035340;28;45330;-69
2022/12/26 12:42:13;;;;;;;;;2.00;2.00;;;;;9.73;86.67;101074.78;5035189;28;45504;-69
2022/12/26 12:45:16;;;;;;;;;2.00;2.00;;;;;9.54;86.92;101074.44;5034472;28;45503;-65
2022/12/26 12:48:05;;;;;;;;;3.00;3.00;;;;;9.37;86.68;101072.28;5035165;28;45391;-64
2022/12/26 12:50:47;;;;;;;;;1.75;1.75;;;;;9.27;87.27;101077.78;5017231;28;45373;-70
2022/12/26 12:53:28;;;;;;;;;2.00;2.00;;;;;9.25;86.35;101073.47;5034998;28;45382;-71
2022/12/26 12:56:10;;;;;;;;;3.00;3.00;;;;;9.09;85.94;101073.88;5034716;28;46209;-69
2022/12/26 12:58:54;;;;;;;;;3.00;2.00;;;;;9.06;85.92;101055.59;5034769;28;45444;-70
2022/12/26 13:01:27;;;;;;;;;3.00;3.00;;;;;9.09;86.14;101059.91;5035054;28;45369;-69
2022/12/26 13:04:11;;;;;;;;;2.75;2.75;;;;;9.16;85.27;101074.59;5017240;28;45437;-68
2022/12/26 13:06:51;;;;;;;;;3.00;3.00;;;;;9.20;84.83;101074.44;5016491;28;47824;-71
2022/12/26 13:09:22;;;;;;;;;2.25;1.50;;;;;9.26;84.44;101090.94;5016435;28;45359;-71
2022/12/26 13:12:01;;;;;;;;;3.75;3.75;;;;;9.26;84.06;101083.94;5034948;28;45468;-70
2022/12/26 13:15:20;;;;;;;;;2.00;2.00;;;;;9.26;82.73;101086.56;5017213;28;45263;-70
2022/12/26 13:17:56;;;;;;;;;2.75;2.75;;;;;9.31;82.75;101091.69;4955528;28;45260;-72
2022/12/26 13:20:36;;;;;;;;;1.25;1.25;;;;;9.34;82.31;101089.84;5033967;28;45370;-71
2022/12/26 13:26:05;;;;;;;;;2.25;2.25;;;;;9.48;81.44;101107.00;5037762;28;45426;-70
2022/12/26 13:28:36;;;;;;;;;2.50;2.50;;;;;9.54;80.77;101108.56;5037894;28;45352;-70
2022/12/26 13:31:02;;;;;;;;;1.00;1.00;;;;;9.57;79.67;101105.88;5037948;28;45315;-70
2022/12/26 13:33:29;;;;;;;;;2.00;2.00;;;;;9.64;79.14;101100.41;5037802;28;45413;-67
2022/12/26 13:35:58;;;;;;;;;2.00;2.00;;;;;9.69;78.83;101094.16;5037733;28;45596;-69
2022/12/26 13:38:45;;;;;;;;;1.00;1.00;;;;;9.73;78.27;101101.94;5019431;28;47485;-69
2022/12/26 13:44:05;;;;;;;;;1.75;1.75;;;;;9.81;77.83;101106.94;5037673;28;45376;-71
2022/12/26 13:46:43;;;;;;;;;2.25;2.25;;;;;9.85;77.77;101105.94;5037486;28;45321;-65
2022/12/26 13:49:34;;;;;;;;;2.00;2.00;;;;;9.90;77.08;101104.03;5019310;28;47096;-64
2022/12/26 13:52:18;;;;;;;;;1.00;1.00;;;;;9.94;77.14;101108.31;5037123;28;45190;-63
2022/12/26 13:54:46;;;;;;;;;2.00;2.00;;;;;10.01;77.12;101106.38;5019255;28;45289;-63
2022/12/26 13:57:25;;;;;;;;;1.75;1.75;;;;;10.06;76.65;101120.25;5037393;28;45447;-68
2022/12/26 14:00:05;;;;;;;;;2.50;2.50;;;;;10.12;76.50;101129.72;5019489;28;47655;-70
2022/12/26 14:03:09;;;;;;;;;2.00;2.00;;;;;10.15;75.76;101134.91;5039828;28;45220;-66